Date,TemperatureHighF,TemperatureAvgF,TemperatureLowF,DewpointHighF,DewpointAvgF,DewpointLowF,HumidityHigh,HumidityAvg,HumidityLow,PressureMaxIn,PressureMinIn,WindSpeedMaxMPH,WindSpeedAvgMPH,GustSpeedMaxMPH,PrecipitationSumIn
2013-10-1,82,74,67,-100,-100,-100,0,0,100,0.00,40.00,0,-999,0,0.00
2013-10-2,98,74,51,-100,-100,-100,0,0,100,0.00,40.00,0,-999,0,0.00
2013-10-3,98,78,54,-100,-100,-100,0,0,100,0.00,40.00,0,-999,0,0.00
2013-10-4,96,83,62,-100,-100,-100,0,0,100,0.00,40.00,0,-999,0,0.00
2013-10-5,73,64,55,-100,-100,-100,0,0,100,0.00,40.00,0,-999,0,0.00
2013-10-6,78,63,41,-100,-100,-100,0,0,100,0.00,40.00,0,-999,0,0.00
2013-10-7,83,63,38,-100,-100,-100,0,0,100,0.00,40.00,0,-999,0,0.00
2013-10-8,89,70,41,-100,-100,-100,0,0,100,0.00,40.00,0,-999,0,0.00
2013-10-9,91,72,57,-100,-100,-100,0,0,100,0.00,40.00,0,-999,0,0.00
2013-10-10,95,78,59,-100,-100,-100,0,0,100,0.00,40.00,0,-999,0,0.00
2013-10-11,89,75,59,-100,-100,-100,0,0,100,0.00,40.00,0,-999,0,0.00
2013-10-12,83,68,52,-100,-100,-100,0,0,100,0.00,40.00,0,-999,0,0.00
2013-10-13,80,70,66,-100,-100,-100,0,0,100,0.00,40.00,0,-999,0,0.00
2013-10-14,87,74,65,-100,-100,-100,0,0,100,0.00,40.00,0,-999,0,0.00
2013-10-15,76,62,51,-100,-100,-100,0,0,100,0.00,40.00,0,-999,0,0.00
2013-10-16,62,55,49,-100,-100,-100,0,0,100,0.00,40.00,0,-999,0,0.00
2013-10-17,77,65,51,-100,-100,-100,0,0,100,0.00,40.00,0,-999,0,0.00
2013-10-18,83,63,50,-100,-100,-100,0,0,100,0.00,40.00,0,-999,0,0.00
2013-10-19,67,53,36,-100,-100,-100,0,0,100,0.00,40.00,0,-999,0,0.00
2013-10-20,83,65,37,-100,-100,-100,0,0,100,0.00,40.00,0,-999,0,0.00
2013-10-21,70,56,44,-100,-100,-100,0,0,100,0.00,40.00,0,-999,0,0.00
2013-10-22,76,59,40,-100,-100,-100,0,0,100,0.00,40.00,0,-999,0,0.00
2013-10-23,79,60,34,-100,-100,-100,0,0,100,0.00,40.00,0,-999,0,0.00
2013-10-24,82,66,41,-100,-100,-100,0,0,100,0.00,40.00,0,-999,0,0.00
2013-10-25,76,63,53,-100,-100,-100,0,0,100,0.00,40.00,0,-999,0,0.00
2013-10-26,79,64,48,-100,-100,-100,0,0,100,0.00,40.00,0,-999,0,0.00
2013-10-27,75,62,43,-100,-100,-100,0,0,100,0.00,40.00,0,-999,0,0.00
2013-10-28,87,69,51,-100,-100,-100,0,0,100,0.00,40.00,0,-999,0,0.00
2013-10-29,84,72,51,-100,-100,-100,0,0,100,0.00,40.00,0,-999,0,0.00
2013-10-30,77,67,57,-100,-100,-100,0,0,100,0.00,40.00,0,-999,0,0.00
2013-10-31,74,63,49,-100,-100,-100,0,0,100,0.00,40.00,0,-999,0,0.00